KAL541 LOWW-ENGM
Flight info
| Callsign | KAL541 |
|---|---|
| Flight time | N/A |
| Altitude | 34000 |
| Route | LANUX DCT VLM DCT HDO DCT POGAB DCT SONAL DCT GOLMI DCT KULUD DCT SABAK DCT LUNIP |
| Aircraft | B77L/H-SDE1E2E3FGHIJ2J3J4J5M1RWXY/LB1D1 |
Departure
| Time | 2026-05-05 15:46 |
|---|---|
| Airport | Vienna International Airport (LOWW) |
Arrival
| Time | N/A |
|---|---|
| Airport | Oslo-Gardermoen International Airport (ENGM) |
| Time | Latitude | Longitude | Altitude | Speed | Heading |
|---|---|---|---|---|---|
| 2026-05-05 15:21 | 48.12113 | 16.55050 | 614 ft | 0 kts | 26° |
| 2026-05-05 15:35 | 48.12112 | 16.55048 | 614 ft | 2 kts | 26° |
| 2026-05-05 15:36 | 48.12088 | 16.55031 | 619 ft | 4 kts | 26° |
| 2026-05-05 15:36 | 48.12064 | 16.55014 | 629 ft | 3 kts | 26° |
| 2026-05-05 15:36 | 48.12044 | 16.54997 | 629 ft | 4 kts | 57° |
| 2026-05-05 15:36 | 48.12039 | 16.54977 | 629 ft | 4 kts | 102° |
| 2026-05-05 15:37 | 48.12051 | 16.54937 | 629 ft | 1 kts | 116° |
| 2026-05-05 15:37 | 48.12052 | 16.54932 | 629 ft | 0 kts | 116° |
| 2026-05-05 15:39 | 48.12041 | 16.54966 | 631 ft | 7 kts | 116° |
| 2026-05-05 15:39 | 48.12019 | 16.55031 | 626 ft | 7 kts | 117° |
| 2026-05-05 15:39 | 48.11997 | 16.55098 | 626 ft | 8 kts | 115° |
| 2026-05-05 15:40 | 48.11969 | 16.55191 | 624 ft | 12 kts | 115° |
| 2026-05-05 15:40 | 48.11924 | 16.55329 | 621 ft | 16 kts | 116° |
| 2026-05-05 15:40 | 48.11880 | 16.55492 | 622 ft | 17 kts | 113° |
| 2026-05-05 15:40 | 48.11826 | 16.55660 | 627 ft | 18 kts | 116° |
| 2026-05-05 15:41 | 48.11769 | 16.55834 | 627 ft | 19 kts | 115° |
| 2026-05-05 15:41 | 48.11711 | 16.56016 | 625 ft | 20 kts | 116° |
| 2026-05-05 15:41 | 48.11650 | 16.56200 | 625 ft | 20 kts | 117° |
| 2026-05-05 15:41 | 48.11586 | 16.56394 | 626 ft | 21 kts | 116° |
| 2026-05-05 15:42 | 48.11524 | 16.56588 | 624 ft | 21 kts | 115° |
| 2026-05-05 15:42 | 48.11459 | 16.56790 | 620 ft | 22 kts | 116° |
| 2026-05-05 15:42 | 48.11391 | 16.56995 | 626 ft | 22 kts | 116° |
| 2026-05-05 15:42 | 48.11322 | 16.57204 | 623 ft | 23 kts | 116° |
| 2026-05-05 15:43 | 48.11255 | 16.57419 | 629 ft | 23 kts | 116° |
| 2026-05-05 15:43 | 48.11210 | 16.57606 | 614 ft | 16 kts | 78° |
| 2026-05-05 15:43 | 48.11310 | 16.57674 | 621 ft | 20 kts | 353° |
| 2026-05-05 15:43 | 48.11450 | 16.57622 | 627 ft | 21 kts | 343° |
| 2026-05-05 15:44 | 48.11588 | 16.57561 | 625 ft | 21 kts | 343° |
| 2026-05-05 15:44 | 48.11726 | 16.57501 | 622 ft | 20 kts | 345° |
| 2026-05-05 15:44 | 48.11817 | 16.57501 | 626 ft | 11 kts | 45° |
| 2026-05-05 15:44 | 48.11850 | 16.57615 | 621 ft | 12 kts | 73° |
| 2026-05-05 15:45 | 48.11860 | 16.57763 | 625 ft | 15 kts | 97° |
| 2026-05-05 15:45 | 48.11799 | 16.57888 | 625 ft | 17 kts | 152° |
| 2026-05-05 15:45 | 48.11607 | 16.57976 | 622 ft | 41 kts | 164° |
| 2026-05-05 15:45 | 48.11240 | 16.58129 | 627 ft | 77 kts | 165° |
| 2026-05-05 15:46 | 48.10540 | 16.58423 | 619 ft | 132 kts | 164° |
| 2026-05-05 15:46 | 48.09532 | 16.58857 | 800 ft | 158 kts | 165° |
| 2026-05-05 15:46 | 48.08468 | 16.59306 | 1360 ft | 160 kts | 168° |
| 2026-05-05 15:46 | 48.07370 | 16.59779 | 1938 ft | 165 kts | 167° |
| 2026-05-05 15:47 | 48.06281 | 16.60373 | 2476 ft | 174 kts | 155° |
| 2026-05-05 15:47 | 48.05302 | 16.61643 | 2808 ft | 197 kts | 135° |
| 2026-05-05 15:47 | 48.04597 | 16.63481 | 3293 ft | 214 kts | 114° |
| 2026-05-05 15:47 | 48.04463 | 16.65772 | 3809 ft | 233 kts | 86° |
| 2026-05-05 15:48 | 48.05104 | 16.68070 | 4351 ft | 249 kts | 55° |
| 2026-05-05 15:48 | 48.06412 | 16.69792 | 4858 ft | 255 kts | 36° |
| 2026-05-05 15:48 | 48.07956 | 16.71298 | 5185 ft | 274 kts | 35° |
| 2026-05-05 15:48 | 48.09599 | 16.72942 | 5558 ft | 292 kts | 36° |
| 2026-05-05 15:49 | 48.11274 | 16.74715 | 6220 ft | 298 kts | 37° |
| 2026-05-05 15:49 | 48.12960 | 16.76563 | 6868 ft | 304 kts | 38° |
| 2026-05-05 15:49 | 48.14708 | 16.78297 | 7610 ft | 299 kts | 22° |
| 2026-05-05 15:49 | 48.16735 | 16.78903 | 8246 ft | 302 kts | 354° |
| 2026-05-05 15:50 | 48.18767 | 16.78297 | 8893 ft | 293 kts | 330° |
| 2026-05-05 15:50 | 48.20387 | 16.76544 | 9470 ft | 288 kts | 309° |
| 2026-05-05 15:50 | 48.21762 | 16.74298 | 9989 ft | 295 kts | 308° |
| 2026-05-05 15:50 | 48.23149 | 16.71998 | 10435 ft | 310 kts | 307° |
| 2026-05-05 15:51 | 48.24645 | 16.69490 | 10623 ft | 335 kts | 307° |
| 2026-05-05 15:51 | 48.26256 | 16.66789 | 10818 ft | 360 kts | 307° |
| 2026-05-05 15:51 | 48.27974 | 16.63918 | 11189 ft | 377 kts | 308° |
| 2026-05-05 15:51 | 48.29758 | 16.60957 | 11930 ft | 385 kts | 309° |
| 2026-05-05 15:52 | 48.31576 | 16.57964 | 12858 ft | 389 kts | 310° |
| 2026-05-05 15:52 | 48.33404 | 16.54938 | 13754 ft | 393 kts | 310° |
| 2026-05-05 15:52 | 48.35253 | 16.51880 | 14589 ft | 397 kts | 310° |
| 2026-05-05 15:52 | 48.37117 | 16.48787 | 15363 ft | 401 kts | 308° |
| 2026-05-05 15:53 | 48.38996 | 16.45655 | 16166 ft | 405 kts | 309° |